»·PEaware :: N132NP KMIA-KEYW

N132NP :: KMIA-KEYW

FLIGHT INFORMATION

Flight Status: Arrived
Operator: Privately registered:
United States
More flights under this callsign
Pilot: Jarrett L. (8209)
Aircraft: CESSNA 208 CARAVAN
(C208)
More flights by this aircraft type
Origin: KMIA Miami Intl
United States
Destination: KEYW Key West Intl
United States
More flights between these airports :: More routes between these airports
Route: MNATE JANKA CHETS
File this flight plan on PilotEdge
Remarks:
Altitude:
(Current/Filed)
12,500ft
Speed:
(Current/Filed)
140kts
Departed: 13-Aug-17 05:22 AM
Arrived: 13-Aug-17 06:25 AM
Distance/Time
Traveled:
109nm/1:03
Distance/Time
To Go:
Arrived

Flight Plot

Page will automatically refresh every two minutes.

Flight plan parsing failed; only flown route is shown


Map Options




Map Legend


Flown Route
Filed Route
Departure Airport
Arrival Airport
Navaid (VOR, NDB)
Fix

Horizontal Profiles

Position Reports

Time Latitude Longitude Heading Altitude Ground
Speed
13-Aug-17 05:09 25.806844 -80.291990 177 10ft 0kts
13-Aug-17 05:10 25.806844 -80.291990 177 10ft 0kts
13-Aug-17 05:11 25.806844 -80.291990 177 10ft 0kts
13-Aug-17 05:12 25.806844 -80.291990 177 10ft 0kts
13-Aug-17 05:13 25.806844 -80.291990 177 10ft 0kts
13-Aug-17 05:14 25.806844 -80.291990 177 10ft 0kts
13-Aug-17 05:16 25.806845 -80.291988 177 10ft 0kts
13-Aug-17 05:17 25.806845 -80.291988 177 10ft 0kts
13-Aug-17 05:18 25.806845 -80.291988 176 10ft 0kts
13-Aug-17 05:19 25.806845 -80.291988 176 10ft 0kts
13-Aug-17 05:21 25.806845 -80.291988 176 10ft 0kts
13-Aug-17 05:22 25.806845 -80.291988 176 10ft 0kts
13-Aug-17 05:23 25.805507 -80.291464 182 10ft 15kts
13-Aug-17 05:24 25.804208 -80.296853 266 9ft 24kts
13-Aug-17 05:25 25.803867 -80.300539 216 10ft 0kts
13-Aug-17 05:26 25.803352 -80.289200 88 92ft 101kts
13-Aug-17 05:27 25.782636 -80.277566 223 747ft 130kts
13-Aug-17 05:28 25.751061 -80.296709 196 1477ft 131kts
13-Aug-17 05:29 25.716386 -80.307373 195 2272ft 128kts
13-Aug-17 05:30 25.682405 -80.317498 195 3067ft 125kts
13-Aug-17 05:31 25.649047 -80.327362 195 3860ft 123kts
13-Aug-17 05:32 25.616274 -80.337031 195 4654ft 121kts
13-Aug-17 05:33 25.584404 -80.346438 195 5442ft 118kts
13-Aug-17 05:34 25.553170 -80.355635 196 6232ft 115kts
13-Aug-17 05:35 25.522801 -80.364574 196 7013ft 112kts
13-Aug-17 05:36 25.491506 -80.373862 196 7518ft 129kts
13-Aug-17 05:37 25.454604 -80.384752 196 8037ft 142kts
13-Aug-17 05:38 25.416150 -80.396078 196 8538ft 144kts
13-Aug-17 05:39 25.377503 -80.407447 196 9034ft 144kts
13-Aug-17 05:40 25.339171 -80.418707 196 9528ft 143kts
13-Aug-17 05:41 25.300984 -80.429922 196 10024ft 141kts
13-Aug-17 05:42 25.263088 -80.441047 196 10519ft 140kts
13-Aug-17 05:43 25.225520 -80.452074 195 11014ft 139kts
13-Aug-17 05:44 25.188195 -80.463017 195 11510ft 138kts
13-Aug-17 05:45 25.151422 -80.473786 195 12003ft 136kts
13-Aug-17 05:46 25.115113 -80.484396 196 12479ft 136kts
13-Aug-17 05:47 25.075620 -80.496020 195 12500ft 154kts
13-Aug-17 05:48 25.033552 -80.508385 194 12496ft 160kts
13-Aug-17 05:49 24.991253 -80.520756 193 12495ft 156kts
13-Aug-17 05:50 24.964880 -80.557489 242 12494ft 161kts
13-Aug-17 05:51 24.944757 -80.601698 242 12492ft 163kts
13-Aug-17 05:52 24.924702 -80.646204 242 12490ft 160kts
13-Aug-17 05:53 24.906700 -80.686033 242 12181ft 144kts
13-Aug-17 05:54 24.888832 -80.725622 242 11607ft 147kts
13-Aug-17 05:55 24.871092 -80.764971 242 11199ft 141kts
13-Aug-17 05:56 24.853741 -80.803416 242 10797ft 140kts
13-Aug-17 05:57 24.836464 -80.841657 242 10396ft 139kts
13-Aug-17 05:58 24.819299 -80.879625 243 9998ft 139kts
13-Aug-17 05:59 24.802209 -80.917414 243 9603ft 139kts
13-Aug-17 06:00 24.784865 -80.955726 243 9203ft 140kts
13-Aug-17 06:01 24.767504 -80.994023 243 8804ft 140kts
13-Aug-17 06:02 24.750109 -81.032355 243 8406ft 140kts
13-Aug-17 06:02 24.735570 -81.064383 243 8074ft 141kts
13-Aug-17 06:03 24.718141 -81.102724 243 7678ft 141kts
13-Aug-17 06:04 24.700544 -81.141426 243 7278ft 141kts
13-Aug-17 06:05 24.683020 -81.179947 243 6880ft 141kts
13-Aug-17 06:07 24.662553 -81.224924 243 6416ft 141kts
13-Aug-17 06:07 24.647857 -81.257021 243 6083ft 141kts
13-Aug-17 06:08 24.643638 -81.299109 270 5688ft 140kts
13-Aug-17 06:09 24.643304 -81.341912 270 5289ft 139kts
13-Aug-17 06:10 24.643004 -81.384627 270 4890ft 139kts
13-Aug-17 06:11 24.642692 -81.427320 270 4492ft 140kts
13-Aug-17 06:12 24.642366 -81.470186 270 4094ft 140kts
13-Aug-17 06:13 24.642026 -81.513109 270 3696ft 140kts
13-Aug-17 06:14 24.641677 -81.555946 269 3298ft 140kts
13-Aug-17 06:15 24.641318 -81.598717 269 2904ft 140kts
13-Aug-17 06:16 24.640942 -81.641528 268 2510ft 140kts
13-Aug-17 06:17 24.640533 -81.684469 268 2111ft 141kts
13-Aug-17 06:18 24.640131 -81.727511 268 1710ft 141kts
13-Aug-17 06:19 24.639733 -81.769661 268 1501ft 130kts
13-Aug-17 06:20 24.639352 -81.807786 268 1505ft 121kts
13-Aug-17 06:21 24.638978 -81.844580 268 1508ft 119kts
13-Aug-17 06:22 24.638601 -81.880867 268 1508ft 118kts
13-Aug-17 06:23 24.616884 -81.883553 120 1512ft 115kts
13-Aug-17 06:24 24.600890 -81.852345 120 1508ft 118kts
13-Aug-17 06:25 24.578093 -81.828786 139 1392ft 105kts
13-Aug-17 06:26 24.561779 -81.805470 116 1089ft 91kts
13-Aug-17 06:27 24.556020 -81.775497 91 132ft 106kts
13-Aug-17 06:28 24.556053 -81.756179 121 8ft 27kts
13-Aug-17 06:29 24.554720 -81.754780 92 8ft 0kts

Navigation Log

Ident Type
Flight plan parsing failed, navigation log unavailable